Time;durP1;ratioP1;P1;durP2;ratioP2;P2;SDS_P1;SDS_P2;PMS_P1;PMS_P2;Temp;Humidity;BMP_temperature;BMP_pressure;BME280_temperature;BME280_humidity;BME280_pressure;Samples;Min_cycle;Max_cycle;Signal;HPM_P1;HPM_P2
2021/07/29 00:01:12;;;;;;;5.20;2.13;;;;;;;13.27;83.97;100987.78;5026012;28;20026;-68
2021/07/29 00:03:37;;;;;;;6.88;2.10;;;;;;;13.26;82.66;100970.25;5022940;28;20036;-67
2021/07/29 00:06:02;;;;;;;10.00;2.30;;;;;;;13.24;83.14;100965.06;5022607;28;20704;-68
2021/07/29 00:08:27;;;;;;;7.43;2.00;;;;;;;13.22;79.40;100973.03;5020770;28;20040;-68
2021/07/29 00:10:53;;;;;;;5.63;1.90;;;;;;;13.16;80.43;100981.19;5024207;28;20021;-68
2021/07/29 00:13:18;;;;;;;5.05;2.00;;;;;;;13.10;80.15;100964.78;5025384;28;20029;-68
2021/07/29 00:15:44;;;;;;;7.28;2.17;;;;;;;13.07;79.99;100977.16;5025768;28;20104;-68
2021/07/29 00:20:35;;;;;;;9.55;2.38;;;;;;;13.07;81.23;100973.66;5024899;28;20753;-68
2021/07/29 00:23:01;;;;;;;11.57;2.28;;;;;;;13.08;81.68;100970.13;5020031;28;20029;-68
2021/07/29 00:25:27;;;;;;;13.93;2.83;;;;;;;13.15;81.37;100971.56;5022200;28;20029;-68
2021/07/29 00:27:53;;;;;;;11.10;2.35;;;;;;;13.28;80.28;100963.16;5007620;28;20030;-68
2021/07/29 00:30:20;;;;;;;10.18;2.83;;;;;;;13.28;80.83;100957.91;5019776;28;20100;-67
2021/07/29 00:32:46;;;;;;;13.10;2.55;;;;;;;13.31;81.22;100955.13;5017520;28;20049;-67
2021/07/29 00:35:14;;;;;;;9.98;2.28;;;;;;;13.33;81.53;100956.75;5025199;28;20513;-67
2021/07/29 00:37:40;;;;;;;15.90;2.92;;;;;;;13.34;82.96;100952.38;5006354;28;20364;-67
2021/07/29 00:40:06;;;;;;;13.10;2.60;;;;;;;13.42;83.00;100950.31;5022995;28;20021;-67
2021/07/29 00:42:31;;;;;;;17.30;3.55;;;;;;;13.49;83.65;100945.63;5021076;28;20048;-67
2021/07/29 00:44:56;;;;;;;17.65;2.95;;;;;;;13.56;84.09;100949.69;5025086;28;20120;-68
2021/07/29 00:47:22;;;;;;;16.80;3.13;;;;;;;13.63;84.36;100953.78;5021025;28;20056;-68
2021/07/29 00:49:48;;;;;;;18.02;3.15;;;;;;;13.71;84.42;100935.84;5023925;28;20037;-68
2021/07/29 00:52:14;;;;;;;12.65;3.20;;;;;;;13.78;84.38;100939.06;5016236;28;20034;-68
2021/07/29 00:54:40;;;;;;;18.58;4.35;;;;;;;13.92;84.42;100946.34;5019988;28;20033;-68
2021/07/29 00:57:08;;;;;;;19.20;3.95;;;;;;;13.96;85.45;100934.72;5020115;28;20029;-68
2021/07/29 00:59:33;;;;;;;17.27;4.32;;;;;;;14.06;85.29;100944.88;5021698;28;20087;-68
2021/07/29 01:01:58;;;;;;;20.30;4.28;;;;;;;14.20;83.96;100943.31;5018686;28;20025;-68
2021/07/29 01:04:24;;;;;;;24.38;4.22;;;;;;;14.29;84.57;100936.75;5024417;28;20083;-68
2021/07/29 01:06:49;;;;;;;21.38;4.35;;;;;;;14.30;84.95;100956.94;5021123;28;20086;-67
2021/07/29 01:09:14;;;;;;;33.67;5.47;;;;;;;14.34;85.14;100950.56;5024758;28;20029;-67
2021/07/29 01:11:44;;;;;;;26.90;4.50;;;;;;;14.34;85.36;100950.56;5014120;28;20420;-68
2021/07/29 01:14:10;;;;;;;22.15;4.70;;;;;;;14.36;85.43;100959.28;5022394;28;20030;-68
2021/07/29 01:16:35;;;;;;;19.88;4.38;;;;;;;14.43;84.00;100961.63;5019100;28;20025;-68
2021/07/29 01:19:02;;;;;;;14.93;3.05;;;;;;;14.54;77.03;100964.63;5018763;28;20033;-68
2021/07/29 01:21:28;;;;;;;9.52;2.60;;;;;;;14.46;76.14;100975.53;5021046;28;20100;-67
2021/07/29 01:23:53;;;;;;;9.00;2.10;;;;;;;14.33;76.15;100969.97;5007628;28;20025;-68
2021/07/29 01:26:19;;;;;;;11.65;2.53;;;;;;;14.16;75.29;100968.09;5012552;28;20025;-68
2021/07/29 01:28:44;;;;;;;12.60;3.30;;;;;;;14.09;75.85;100963.19;5012366;28;20065;-67
2021/07/29 01:31:10;;;;;;;10.75;2.30;;;;;;;13.94;76.40;100962.97;5015869;28;20487;-68
2021/07/29 01:33:38;;;;;;;12.65;2.60;;;;;;;13.83;75.82;100970.47;5016381;28;20056;-67
2021/07/29 01:36:04;;;;;;;9.75;2.35;;;;;;;13.74;76.69;100971.75;5019347;28;20041;-67
2021/07/29 01:38:30;;;;;;;13.00;3.45;;;;;;;13.68;77.90;100969.38;5012769;28;20030;-67
2021/07/29 01:40:55;;;;;;;12.90;2.75;;;;;;;13.63;77.90;100961.69;5013213;28;20037;-68
2021/07/29 01:43:20;;;;;;;17.00;2.55;;;;;;;13.67;77.03;100950.06;5015544;28;20059;-69
2021/07/29 01:45:46;;;;;;;12.65;2.47;;;;;;;13.68;77.07;100962.34;5013628;28;20021;-67
2021/07/29 01:48:11;;;;;;;15.02;3.10;;;;;;;13.66;75.66;100953.63;5024924;28;20021;-68
2021/07/29 01:50:36;;;;;;;21.23;2.67;;;;;;;13.68;75.89;100959.72;5020759;28;20051;-70
2021/07/29 01:53:01;;;;;;;15.15;2.85;;;;;;;13.66;76.17;100960.69;5023000;28;20112;-67
2021/07/29 01:55:27;;;;;;;11.57;2.40;;;;;;;13.62;76.27;100961.72;5010549;28;20100;-68
2021/07/29 01:57:52;;;;;;;11.40;2.60;;;;;;;13.60;74.88;100955.69;5020867;28;20014;-67
2021/07/29 02:00:18;;;;;;;12.18;1.92;;;;;;;13.63;73.75;100952.91;5019438;28;20527;-67
2021/07/29 02:02:43;;;;;;;11.18;1.83;;;;;;;13.61;73.57;100950.34;5024699;28;20075;-67
2021/07/29 02:05:08;;;;;;;10.25;2.35;;;;;;;13.57;74.15;100959.31;5024389;28;20029;-67
2021/07/29 02:07:34;;;;;;;10.75;2.00;;;;;;;13.53;73.79;100960.34;5009569;28;20540;-68
2021/07/29 02:09:59;;;;;;;8.95;1.80;;;;;;;13.55;72.51;100955.88;5023834;28;20065;-68
2021/07/29 02:12:24;;;;;;;8.30;1.80;;;;;;;13.51;72.37;100960.44;5015808;28;20111;-68
2021/07/29 02:14:50;;;;;;;6.22;1.80;;;;;;;13.55;71.33;100955.88;5024768;28;20382;-68
2021/07/29 02:17:19;;;;;;;13.93;2.00;;;;;;;13.54;71.45;100965.59;5022650;28;20017;-69
2021/07/29 02:19:44;;;;;;;7.57;1.88;;;;;;;13.54;71.52;100969.97;5023374;28;20097;-68
2021/07/29 02:22:10;;;;;;;6.32;1.60;;;;;;;13.53;71.26;100963.00;5018486;28;20125;-68
2021/07/29 02:24:35;;;;;;;9.88;1.70;;;;;;;13.55;70.51;100966.44;5008555;28;20026;-68
2021/07/29 02:27:00;;;;;;;10.40;1.70;;;;;;;13.55;70.94;100971.69;5016839;28;20017;-68
2021/07/29 02:29:26;;;;;;;5.40;1.70;;;;;;;13.59;70.90;100968.00;5015972;28;20025;-68
2021/07/29 02:31:52;;;;;;;11.98;2.13;;;;;;;13.59;70.75;100973.28;5026543;28;20044;-68
2021/07/29 02:34:17;;;;;;;7.05;2.08;;;;;;;13.60;71.04;100972.34;5027256;28;20421;-68
2021/07/29 02:36:42;;;;;;;9.80;1.65;;;;;;;13.58;71.02;100981.25;5020708;28;20030;-68
2021/07/29 02:39:07;;;;;;;9.73;1.80;;;;;;;13.58;71.28;100981.25;5021696;28;20032;-68
2021/07/29 02:41:34;;;;;;;5.57;1.67;;;;;;;13.64;71.15;100981.81;5025383;28;20184;-68
2021/07/29 02:43:59;;;;;;;11.07;1.60;;;;;;;13.63;71.71;100980.13;5027616;28;20057;-68
2021/07/29 02:46:25;;;;;;;9.07;1.88;;;;;;;13.64;70.96;100973.06;5026640;28;20112;-68
2021/07/29 02:48:50;;;;;;;13.05;2.13;;;;;;;13.67;71.79;100979.06;5023309;28;20548;-68
2021/07/29 02:51:15;;;;;;;10.50;2.00;;;;;;;13.64;71.68;100981.81;5022341;28;20033;-69
2021/07/29 02:53:41;;;;;;;8.93;2.20;;;;;;;13.68;72.33;100982.56;5026273;28;20482;-69
2021/07/29 02:56:08;;;;;;;10.27;2.10;;;;;;;13.68;71.78;100975.53;5021505;28;20056;-68
2021/07/29 02:58:33;;;;;;;7.68;2.00;;;;;;;13.72;72.46;100985.00;5022930;28;20028;-69
2021/07/29 03:00:59;;;;;;;11.57;2.20;;;;;;;13.73;72.73;100980.59;5020783;28;20033;-69
2021/07/29 03:03:24;;;;;;;10.07;2.15;;;;;;;13.68;73.57;100978.16;5025572;28;20029;-68
2021/07/29 03:05:50;;;;;;;15.80;2.20;;;;;;;13.65;73.74;100973.00;5025825;28;20029;-68
2021/07/29 03:08:15;;;;;;;14.32;2.42;;;;;;;13.61;74.26;100970.59;5026258;28;20024;-68
2021/07/29 03:10:45;;;;;;;13.68;2.47;;;;;;;13.59;74.55;100981.19;5006769;28;20474;-68
2021/07/29 03:13:10;;;;;;;6.75;2.00;;;;;;;13.60;74.83;100980.25;5021576;28;20036;-67
2021/07/29 03:15:35;;;;;;;11.05;2.50;;;;;;;13.60;75.99;100987.31;5025038;28;20021;-68
2021/07/29 03:18:00;;;;;;;17.20;3.08;;;;;;;13.62;75.17;100983.69;5020574;28;20386;-69
2021/07/29 03:20:26;;;;;;;12.82;2.45;;;;;;;13.62;76.76;100985.44;5024260;28;20030;-68
2021/07/29 03:22:51;;;;;;;10.68;2.50;;;;;;;13.62;75.87;100978.41;5014557;28;20026;-68
2021/07/29 03:25:17;;;;;;;9.30;2.38;;;;;;;13.58;77.59;100984.72;5025290;28;20032;-68
2021/07/29 03:27:42;;;;;;;11.20;2.50;;;;;;;13.59;76.21;100983.81;5018636;28;20048;-68
2021/07/29 03:30:08;;;;;;;10.30;2.35;;;;;;;13.58;76.75;100987.38;5020304;28;20118;-68
2021/07/29 03:32:33;;;;;;;12.18;2.17;;;;;;;13.56;77.23;100992.72;5015473;28;20017;-68
2021/07/29 03:34:58;;;;;;;17.38;2.40;;;;;;;13.50;77.99;100990.34;5020198;28;20036;-67
2021/07/29 03:37:24;;;;;;;13.38;2.72;;;;;;;13.46;78.14;100998.44;5025577;28;20022;-67
2021/07/29 03:39:49;;;;;;;11.75;2.10;;;;;;;13.39;78.16;100990.78;5025797;28;20040;-68
2021/07/29 03:42:14;;;;;;;12.38;2.35;;;;;;;13.39;78.86;100997.84;5025456;28;20021;-67
2021/07/29 03:44:40;;;;;;;11.05;2.25;;;;;;;13.39;78.94;101001.31;5016802;28;20034;-67
2021/07/29 03:47:05;;;;;;;10.40;2.70;;;;;;;13.35;79.74;100996.25;5006481;28;20387;-67
2021/07/29 03:49:34;;;;;;;10.98;2.60;;;;;;;13.37;79.51;100997.00;5007702;28;20029;-68
2021/07/29 03:52:00;;;;;;;9.13;2.53;;;;;;;13.37;79.23;100997.91;5007358;28;20026;-69
2021/07/29 03:54:25;;;;;;;6.90;2.13;;;;;;;13.39;79.80;100995.22;5007833;28;20932;-67
2021/07/29 03:56:53;;;;;;;11.52;2.92;;;;;;;13.42;79.68;101002.13;5007503;28;20030;-68
2021/07/29 03:59:19;;;;;;;13.32;2.75;;;;;;;13.48;78.82;100997.47;5006396;28;20032;-68
2021/07/29 04:01:44;;;;;;;17.63;2.72;;;;;;;13.59;79.18;101002.25;5007364;28;20116;-68
2021/07/29 04:04:09;;;;;;;14.65;3.42;;;;;;;13.68;78.41;101001.00;5007031;28;20033;-67
2021/07/29 04:06:35;;;;;;;16.83;3.10;;;;;;;13.83;77.30;101002.09;5007456;28;20084;-68
2021/07/29 04:09:00;;;;;;;9.18;2.63;;;;;;;13.98;76.67;100997.94;5006908;28;20119;-68
2021/07/29 04:11:25;;;;;;;15.40;3.00;;;;;;;14.02;76.75;101003.00;5007428;28;20168;-67
2021/07/29 04:13:51;;;;;;;15.90;3.42;;;;;;;14.10;76.74;101007.09;5006824;28;20036;-68
2021/07/29 04:16:16;;;;;;;19.90;2.97;;;;;;;14.14;76.38;101006.03;5007249;28;20549;-67
2021/07/29 04:18:42;;;;;;;9.35;2.45;;;;;;;14.22;75.87;101006.53;5006950;28;20416;-66
2021/07/29 04:21:13;;;;;;;14.50;3.03;;;;;;;14.24;75.96;101009.09;5006526;28;20033;-66
2021/07/29 04:23:39;;;;;;;14.68;2.60;;;;;;;14.26;75.99;101004.63;5004499;28;20093;-68
2021/07/29 04:26:04;;;;;;;11.73;2.40;;;;;;;14.31;75.15;101007.91;5023686;28;20040;-68
2021/07/29 04:28:29;;;;;;;11.50;2.65;;;;;;;14.26;75.90;101013.38;5024563;28;20032;-68
2021/07/29 04:30:55;;;;;;;13.98;3.13;;;;;;;14.22;76.18;101008.34;5021395;28;20032;-68
2021/07/29 04:33:20;;;;;;;9.93;2.65;;;;;;;14.24;76.15;101011.75;5026107;28;20025;-67
2021/07/29 04:35:45;;;;;;;9.52;2.17;;;;;;;14.24;75.52;101015.25;5026008;28;20083;-67
2021/07/29 04:38:10;;;;;;;11.82;3.15;;;;;;;14.22;76.36;101019.72;5026366;28;20055;-67
2021/07/29 04:40:36;;;;;;;12.63;2.70;;;;;;;14.22;75.84;101017.09;5025921;28;20501;-68
2021/07/29 04:43:01;;;;;;;10.93;2.90;;;;;;;14.19;75.86;101010.19;5026250;28;20454;-68
2021/07/29 04:45:26;;;;;;;16.15;3.35;;;;;;;14.22;75.37;101013.63;5026368;28;20115;-68
2021/07/29 04:47:52;;;;;;;8.02;2.42;;;;;;;14.20;76.78;101014.53;5025677;28;20116;-68
2021/07/29 04:50:17;;;;;;;11.85;2.50;;;;;;;14.18;76.58;101016.38;5024911;28;20029;-68
2021/07/29 04:52:43;;;;;;;10.85;2.90;;;;;;;14.17;75.94;101021.72;5024022;28;20025;-68
2021/07/29 04:55:08;;;;;;;10.43;2.75;;;;;;;14.22;75.61;101021.53;5026051;28;20033;-68
2021/07/29 04:57:34;;;;;;;11.10;2.45;;;;;;;14.26;74.99;101016.00;5025829;28;20471;-68
2021/07/29 04:59:59;;;;;;;11.55;2.50;;;;;;;14.31;75.78;101021.09;5026189;28;20025;-68
2021/07/29 05:02:24;;;;;;;9.02;2.45;;;;;;;14.41;75.48;101017.09;5024062;28;20116;-68
2021/07/29 05:04:49;;;;;;;9.32;2.60;;;;;;;14.44;76.41;101016.13;5025964;28;20482;-68
2021/07/29 05:07:15;;;;;;;16.60;3.03;;;;;;;14.41;75.25;101022.38;5025852;28;20029;-68
2021/07/29 05:09:40;;;;;;;13.07;2.40;;;;;;;14.47;75.39;101023.88;5025966;28;20052;-68
2021/07/29 05:12:06;;;;;;;13.63;3.00;;;;;;;14.46;75.23;101023.03;5026854;28;20033;-67
2021/07/29 05:14:31;;;;;;;9.88;2.58;;;;;;;14.45;75.69;101023.97;5026634;28;20055;-66
2021/07/29 05:17:01;;;;;;;14.38;3.00;;;;;;;14.52;76.02;101028.03;5026649;28;20026;-68
2021/07/29 05:19:26;;;;;;;11.13;3.25;;;;;;;14.66;75.80;101023.91;5026613;28;20032;-68
2021/07/29 05:21:51;;;;;;;10.95;3.08;;;;;;;14.83;75.94;101026.63;5026532;28;20029;-68
2021/07/29 05:24:17;;;;;;;8.55;2.40;;;;;;;14.93;76.25;101029.66;5026274;28;20445;-68
2021/07/29 05:26:43;;;;;;;14.73;2.90;;;;;;;14.83;77.47;101025.75;5026565;28;20497;-68
2021/07/29 05:29:08;;;;;;;18.17;3.38;;;;;;;14.76;77.68;101040.16;5025243;28;20048;-68
2021/07/29 05:31:36;;;;;;;14.60;3.35;;;;;;;14.76;78.77;101034.88;5024836;28;20033;-68
2021/07/29 05:34:01;;;;;;;14.68;3.63;;;;;;;14.75;79.35;101038.44;5025961;28;20348;-67
2021/07/29 05:36:26;;;;;;;19.38;3.80;;;;;;;14.72;79.19;101038.63;5025412;28;20025;-67
2021/07/29 05:38:51;;;;;;;18.52;3.78;;;;;;;14.71;79.08;101032.50;5026202;28;20036;-67
2021/07/29 05:41:17;;;;;;;14.05;3.17;;;;;;;14.75;79.14;101035.81;5024121;28;20432;-68
2021/07/29 05:43:42;;;;;;;14.27;3.40;;;;;;;14.72;79.12;101036.81;5025776;28;20529;-67
2021/07/29 05:46:09;;;;;;;15.07;3.25;;;;;;;14.66;78.98;101035.34;5025608;28;20026;-68
2021/07/29 05:48:34;;;;;;;17.05;3.55;;;;;;;14.74;79.03;101042.88;5024517;28;20167;-67
2021/07/29 05:51:00;;;;;;;14.93;3.67;;;;;;;14.95;77.88;101040.16;5025153;28;20057;-68
2021/07/29 05:53:26;;;;;;;14.32;3.03;;;;;;;15.20;76.63;101042.47;5024644;28;20028;-68
2021/07/29 05:55:53;;;;;;;15.05;3.10;;;;;;;15.31;75.85;101053.34;5026090;28;20029;-68
2021/07/29 05:58:19;;;;;;;16.65;3.42;;;;;;;15.41;74.86;101051.09;5025200;28;20018;-68
2021/07/29 06:00:44;;;;;;;22.65;3.28;;;;;;;15.51;74.33;101054.16;5025715;28;20022;-68
2021/07/29 06:03:09;;;;;;;13.48;3.70;;;;;;;15.57;74.20;101056.50;5025175;28;20186;-68
2021/07/29 06:05:34;;;;;;;17.33;3.55;;;;;;;15.47;73.32;101055.25;5023191;28;20589;-69
2021/07/29 06:08:00;;;;;;;16.33;3.78;;;;;;;15.56;73.70;101057.41;5031632;28;20057;-69
2021/07/29 06:10:25;;;;;;;15.57;3.28;;;;;;;15.74;71.92;101065.34;5022744;28;20029;-68
2021/07/29 06:12:50;;;;;;;13.13;3.30;;;;;;;15.79;70.17;101061.53;5014552;28;20029;-68
2021/07/29 06:15:16;;;;;;;14.73;2.88;;;;;;;15.91;69.00;101068.00;5009210;28;20467;-68
2021/07/29 06:17:44;;;;;;;19.95;3.25;;;;;;;16.01;69.59;101068.38;5006519;28;20025;-68
2021/07/29 06:20:10;;;;;;;14.88;2.90;;;;;;;16.13;68.52;101067.75;5007697;28;20038;-68
2021/07/29 06:22:35;;;;;;;18.10;3.17;;;;;;;16.20;66.66;101072.72;5003542;28;20460;-67
2021/07/29 06:25:08;;;;;;;10.07;2.97;;;;;;;16.23;66.75;101065.47;5027307;28;20503;-67
2021/07/29 06:27:34;;;;;;;12.65;3.00;;;;;;;16.34;67.24;101062.25;5010917;28;20034;-68
2021/07/29 06:29:59;;;;;;;12.82;3.45;;;;;;;16.51;67.08;101069.28;5018404;28;20022;-68
2021/07/29 06:32:25;;;;;;;13.18;3.05;;;;;;;16.49;65.61;101089.69;5010453;28;20067;-68
2021/07/29 06:34:51;;;;;;;17.90;3.80;;;;;;;16.45;65.47;101081.06;5028163;28;20048;-68
2021/07/29 06:37:16;;;;;;;12.63;3.13;;;;;;;16.56;65.75;101079.63;5027871;28;20026;-68
2021/07/29 06:39:42;;;;;;;17.15;3.22;;;;;;;16.54;65.88;101069.13;5013392;28;20053;-68
2021/07/29 06:42:07;;;;;;;18.27;3.80;;;;;;;16.57;63.63;101076.91;5011459;28;20838;-67
2021/07/29 06:44:32;;;;;;;10.85;2.58;;;;;;;16.54;63.19;101082.34;5009583;28;20056;-66
2021/07/29 06:46:57;;;;;;;12.60;3.22;;;;;;;16.51;63.94;101085.19;5015152;28;20057;-68
2021/07/29 06:49:31;;;;;;;10.57;2.90;;;;;;;16.55;63.81;101081.41;5026306;28;20743;-67
2021/07/29 06:51:56;;;;;;;11.52;2.90;;;;;;;16.66;63.32;101082.63;5027622;28;20094;-67
2021/07/29 06:54:22;;;;;;;11.50;3.30;;;;;;;16.56;63.18;101095.50;5026614;28;20022;-68
2021/07/29 06:56:47;;;;;;;14.88;3.05;;;;;;;16.62;63.11;101092.53;5026739;28;20487;-68
2021/07/29 06:59:12;;;;;;;11.32;3.28;;;;;;;16.76;63.67;101094.44;5015296;28;20021;-68
2021/07/29 07:01:38;;;;;;;16.42;3.33;;;;;;;16.89;62.28;101094.59;5028891;28;20017;-68
2021/07/29 07:04:03;;;;;;;15.70;3.20;;;;;;;17.00;62.12;101091.41;5027960;28;20021;-68
2021/07/29 07:06:29;;;;;;;17.52;3.42;;;;;;;17.03;61.77;101096.50;5027612;28;20092;-67
2021/07/29 07:08:54;;;;;;;12.68;2.90;;;;;;;17.03;62.52;101094.72;5024685;28;20785;-68
2021/07/29 07:11:20;;;;;;;17.83;4.07;;;;;;;17.19;61.47;101107.09;5027112;28;20031;-68
2021/07/29 07:13:46;;;;;;;12.15;2.85;;;;;;;17.31;60.29;101097.63;5025731;28;20112;-68
2021/07/29 07:16:12;;;;;;;11.52;3.00;;;;;;;17.36;60.58;101120.25;5025026;28;20097;-67
2021/07/29 07:18:38;;;;;;;10.30;2.95;;;;;;;17.50;60.47;101118.63;5019814;28;20404;-67
2021/07/29 07:21:05;;;;;;;15.88;3.08;;;;;;;17.53;59.03;101114.00;5022677;28;20739;-67
2021/07/29 07:23:31;;;;;;;10.57;3.13;;;;;;;17.20;60.21;101114.97;5020135;28;20429;-67
2021/07/29 07:25:56;;;;;;;10.60;2.92;;;;;;;17.26;60.69;101105.81;5011875;28;20013;-68
2021/07/29 07:28:21;;;;;;;13.38;3.50;;;;;;;17.43;59.64;101123.44;5025600;28;20382;-68
2021/07/29 07:30:47;;;;;;;13.23;3.03;;;;;;;17.66;59.60;101115.94;5026177;28;20029;-68
2021/07/29 07:33:12;;;;;;;14.23;3.20;;;;;;;17.79;59.73;101114.28;5026808;28;20080;-68
2021/07/29 07:35:37;;;;;;;16.50;3.55;;;;;;;17.74;59.19;101114.53;5013313;28;20109;-68
2021/07/29 07:38:03;;;;;;;8.80;2.67;;;;;;;17.73;58.41;101112.81;5017359;28;20021;-67
2021/07/29 07:40:28;;;;;;;8.10;3.13;;;;;;;17.51;57.99;101131.78;5026245;28;20163;-68
2021/07/29 07:42:55;;;;;;;17.17;3.30;;;;;;;17.26;59.75;101127.03;5027324;28;20501;-68
2021/07/29 07:45:21;;;;;;;15.60;3.40;;;;;;;17.50;59.32;101146.00;5026279;28;20510;-68
2021/07/29 07:47:46;;;;;;;13.43;3.35;;;;;;;17.65;58.78;101138.97;5027279;28;20127;-69
2021/07/29 07:50:11;;;;;;;10.25;2.78;;;;;;;17.71;58.62;101127.13;5025984;28;20029;-68
2021/07/29 07:52:37;;;;;;;13.63;3.90;;;;;;;17.87;58.00;101133.25;5026877;28;20494;-68
2021/07/29 07:55:02;;;;;;;13.77;3.45;;;;;;;17.88;57.98;101123.47;5025795;28;20025;-68
2021/07/29 07:57:27;;;;;;;12.20;3.05;;;;;;;18.03;58.06;101132.38;5026209;28;20033;-68
2021/07/29 07:59:57;;;;;;;9.95;3.35;;;;;;;18.06;58.00;101126.88;5026659;28;20025;-68
2021/07/29 08:02:23;;;;;;;13.60;3.67;;;;;;;18.28;58.30;101134.38;5023554;28;20398;-68
2021/07/29 08:04:48;;;;;;;14.43;3.22;;;;;;;18.31;57.46;101131.56;5014566;28;20083;-68
2021/07/29 08:07:13;;;;;;;17.60;3.20;;;;;;;18.18;57.93;101152.69;5027142;28;20060;-67
2021/07/29 08:09:39;;;;;;;11.60;3.08;;;;;;;18.45;57.21;101143.13;5026791;28;20068;-69
2021/07/29 08:12:04;;;;;;;18.73;3.53;;;;;;;18.32;57.32;101133.28;5027040;28;20021;-67
2021/07/29 08:14:29;;;;;;;12.02;3.22;;;;;;;18.09;55.78;101136.47;5026353;28;20460;-67
2021/07/29 08:16:55;;;;;;;12.23;3.08;;;;;;;18.05;55.70;101149.06;5025231;28;20022;-68
2021/07/29 08:19:20;;;;;;;10.50;2.92;;;;;;;18.20;54.94;101142.81;5007971;28;20029;-68
2021/07/29 08:21:45;;;;;;;12.20;3.05;;;;;;;18.41;54.23;101147.78;5007198;28;20096;-67
2021/07/29 08:24:11;;;;;;;11.40;3.35;;;;;;;18.19;55.20;101150.88;5005778;28;20091;-67
2021/07/29 08:26:36;;;;;;;17.73;4.43;;;;;;;18.29;54.95;101160.00;5006291;28;20030;-68
2021/07/29 08:29:02;;;;;;;15.65;3.25;;;;;;;18.29;54.25;101169.78;5008006;28;20245;-68
2021/07/29 08:31:27;;;;;;;9.63;2.83;;;;;;;18.46;53.83;101176.72;5022619;28;20104;-68
2021/07/29 08:33:52;;;;;;;16.10;3.40;;;;;;;18.75;54.05;101152.81;5024500;28;20025;-68
2021/07/29 08:36:19;;;;;;;16.45;3.95;;;;;;;18.90;54.02;101149.19;5025399;28;20525;-67
2021/07/29 08:38:45;;;;;;;10.40;3.58;;;;;;;18.85;54.17;101172.53;5007831;28;20018;-68
2021/07/29 08:41:11;;;;;;;12.32;3.53;;;;;;;19.19;52.83;101158.00;5006981;28;20052;-68
2021/07/29 08:43:37;;;;;;;14.90;3.33;;;;;;;19.64;50.48;101172.88;5007011;28;20041;-71
2021/07/29 08:46:04;;;;;;;13.07;3.35;;;;;;;19.97;49.01;101152.94;5007298;28;20030;-68
2021/07/29 08:48:31;;;;;;;10.95;2.78;;;;;;;20.96;47.39;101175.47;5023138;28;20049;-68
2021/07/29 08:50:57;;;;;;;11.23;2.95;;;;;;;21.14;46.67;101172.47;5016237;28;20640;-68
2021/07/29 08:53:22;;;;;;;12.55;3.00;;;;;;;21.80;44.51;101172.09;5025999;28;20091;-71
2021/07/29 08:55:49;;;;;;;10.55;3.22;;;;;;;22.24;43.26;101167.84;5008531;28;20045;-69
2021/07/29 08:58:15;;;;;;;10.82;3.55;;;;;;;21.82;43.96;101162.13;5012651;28;20387;-68
2021/07/29 09:00:45;;;;;;;9.93;3.05;;;;;;;21.64;43.75;101159.03;5006193;28;20026;-68
2021/07/29 09:03:23;;;;;;;11.60;3.13;;;;;;;21.80;43.80;101158.75;5023981;28;20563;-69
2021/07/29 09:06:09;;;;;;;12.15;2.97;;;;;;;20.64;46.01;101167.94;5025968;28;20053;-68
2021/07/29 09:08:44;;;;;;;8.75;2.83;;;;;;;20.66;46.79;101166.00;5025292;28;20029;-66
2021/07/29 09:11:28;;;;;;;12.18;3.10;;;;;;;21.71;45.39;101163.81;5024313;28;20048;-68
2021/07/29 09:14:01;;;;;;;11.05;2.83;;;;;;;22.71;41.47;101159.75;5006939;28;20746;-68
2021/07/29 09:16:27;;;;;;;13.45;3.10;;;;;;;23.30;40.23;101185.38;5007202;28;20022;-68
2021/07/29 09:18:52;;;;;;;7.80;3.05;;;;;;;22.91;40.52;101157.31;5005549;28;20030;-69
2021/07/29 09:21:17;;;;;;;9.23;3.28;;;;;;;22.39;41.90;101172.03;5024079;28;20107;-71
2021/07/29 09:23:43;;;;;;;11.73;2.92;;;;;;;22.36;41.89;101172.25;5024810;28;20029;-68
2021/07/29 09:26:08;;;;;;;10.88;2.92;;;;;;;22.52;41.99;101177.25;5025327;28;20032;-70
2021/07/29 09:28:38;;;;;;;8.98;2.80;;;;;;;22.84;40.09;101163.16;5025709;28;20025;-69
2021/07/29 09:31:20;;;;;;;9.75;2.78;;;;;;;22.80;41.04;101174.22;5026685;28;20339;-68
2021/07/29 09:33:58;;;;;;;10.25;2.95;;;;;;;23.08;41.00;101178.22;5013195;28;20097;-68
2021/07/29 09:36:24;;;;;;;10.52;2.63;;;;;;;23.33;38.96;101187.81;5016023;28;20029;-68
2021/07/29 09:38:50;;;;;;;10.70;2.63;;;;;;;22.65;39.75;101178.97;5020359;28;20026;-68
2021/07/29 09:41:28;;;;;;;9.70;2.70;;;;;;;22.62;41.93;101179.22;5012974;28;20029;-69
2021/07/29 09:43:54;;;;;;;10.15;2.65;;;;;;;23.03;40.09;101186.63;5026910;28;20025;-68
2021/07/29 09:46:20;;;;;;;10.52;2.72;;;;;;;22.90;39.94;101185.91;5021546;28;20029;-68
2021/07/29 09:48:46;;;;;;;7.75;2.67;;;;;;;23.10;39.15;101188.81;5024238;28;20041;-67
2021/07/29 09:51:12;;;;;;;10.25;2.70;;;;;;;22.47;40.22;101183.94;5020044;28;20025;-68
2021/07/29 09:53:38;;;;;;;10.77;2.70;;;;;;;23.31;39.42;101192.44;5019428;28;20029;-70
2021/07/29 09:56:11;;;;;;;16.25;3.25;;;;;;;23.33;38.64;101182.47;5016524;28;20029;-70
2021/07/29 09:58:37;;;;;;;12.75;3.05;;;;;;;23.17;39.54;101184.66;5016296;28;20051;-69
2021/07/29 10:01:03;;;;;;;16.73;2.63;;;;;;;22.73;38.91;101197.94;5022647;28;20029;-69
2021/07/29 10:03:31;;;;;;;11.73;2.70;;;;;;;22.05;40.17;101201.31;5018518;28;20029;-68
2021/07/29 10:06:03;;;;;;;11.18;2.75;;;;;;;21.98;40.94;101194.75;5018981;28;20037;-68
2021/07/29 10:08:31;;;;;;;9.05;2.60;;;;;;;22.80;39.42;101201.84;5014272;28;20024;-67
2021/07/29 10:10:59;;;;;;;9.25;2.47;;;;;;;23.12;39.07;101197.53;5010987;28;20044;-69
2021/07/29 10:13:35;;;;;;;9.85;2.92;;;;;;;22.86;39.66;101216.53;5016597;28;20064;-68
2021/07/29 10:16:00;;;;;;;10.13;2.78;;;;;;;22.73;41.13;101189.91;5015731;28;20093;-66
2021/07/29 10:18:26;;;;;;;7.60;2.92;;;;;;;23.50;40.11;101186.41;5013946;28;20034;-67
2021/07/29 10:21:24;;;;;;;11.48;3.08;;;;;;;23.15;39.99;101183.94;5027350;28;20029;-68
2021/07/29 10:23:54;;;;;;;9.18;2.63;;;;;;;23.47;39.02;101169.78;5028789;28;20027;-68
2021/07/29 10:26:20;;;;;;;6.78;2.35;;;;;;;23.86;37.83;101175.44;5028374;28;20116;-69
2021/07/29 10:28:45;;;;;;;12.02;3.08;;;;;;;23.16;38.91;101191.88;5020277;28;20068;-67
2021/07/29 10:31:13;;;;;;;12.75;3.13;;;;;;;23.30;39.21;101198.75;5017716;28;20030;-69
2021/07/29 10:33:39;;;;;;;10.00;2.72;;;;;;;23.44;38.76;101178.88;5017476;28;20114;-68
2021/07/29 10:36:06;;;;;;;14.75;3.20;;;;;;;23.31;39.76;101192.44;5010270;28;20026;-68
2021/07/29 10:38:37;;;;;;;14.95;3.00;;;;;;;24.47;37.67;101188.16;5025699;28;20128;-68
2021/07/29 10:41:05;;;;;;;10.20;2.83;;;;;;;24.25;36.51;101189.16;5028484;28;20106;-68
2021/07/29 10:43:30;;;;;;;8.88;2.60;;;;;;;24.04;37.25;101196.34;5017372;28;20025;-69
2021/07/29 10:45:57;;;;;;;9.80;2.80;;;;;;;23.74;36.95;101196.09;5019740;28;20036;-67
2021/07/29 10:48:40;;;;;;;12.35;3.05;;;;;;;23.83;38.28;101199.81;5016646;28;20038;-67
2021/07/29 10:51:22;;;;;;;9.15;2.80;;;;;;;23.66;38.39;101194.03;5015666;28;20026;-68
2021/07/29 10:53:57;;;;;;;13.60;2.83;;;;;;;23.55;37.43;101185.22;5020522;28;20091;-69
2021/07/29 10:56:24;;;;;;;13.95;2.65;;;;;;;23.02;39.02;101209.00;5016971;28;20022;-68
2021/07/29 10:58:51;;;;;;;11.52;2.78;;;;;;;23.59;38.98;101192.88;5019718;28;20055;-68
2021/07/29 11:01:22;;;;;;;12.45;3.05;;;;;;;23.82;37.73;101204.31;5018753;28;20025;-67
2021/07/29 11:03:59;;;;;;;8.85;2.83;;;;;;;23.96;37.51;101211.22;5012860;28;20033;-68
2021/07/29 11:06:39;;;;;;;10.45;2.85;;;;;;;23.96;36.85;101205.88;5018522;28;20121;-67
2021/07/29 11:09:21;;;;;;;7.10;2.50;;;;;;;24.06;36.78;101215.81;5014360;28;20063;-68
2021/07/29 11:11:50;;;;;;;11.05;2.40;;;;;;;24.34;34.06;101217.84;5016522;28;20022;-68
2021/07/29 11:14:27;;;;;;;6.80;2.42;;;;;;;24.82;33.50;101218.28;5025547;28;20029;-66
2021/07/29 11:16:56;;;;;;;8.10;2.40;;;;;;;25.29;33.45;101220.41;5025602;28;20117;-68
2021/07/29 11:19:21;;;;;;;10.05;3.28;;;;;;;24.84;35.91;101216.31;5012590;28;20034;-66